Time;durP1;ratioP1;P1;durP2;ratioP2;P2;SDS_P1;SDS_P2;PMS_P1;PMS_P2;Temp;Humidity;BMP_temperature;BMP_pressure;BME280_temperature;BME280_humidity;BME280_pressure;Samples;Min_cycle;Max_cycle;Signal;HPM_P1;HPM_P2
2022/04/10 00:01:06;;;;;;;3.40;2.17;;;;;;;2.17;66.31;100203.90;1701130;84;21349;-73
2022/04/10 00:03:32;;;;;;;5.17;1.95;;;;;;;2.14;66.34;100203.45;1698262;82;20958;-74
2022/04/10 00:05:58;;;;;;;4.90;2.08;;;;;;;2.15;66.37;100205.16;1686570;83;20930;-74
2022/04/10 00:08:25;;;;;;;3.60;1.82;;;;;;;2.14;66.41;100198.77;1680158;82;20974;-74
2022/04/10 00:10:51;;;;;;;5.22;2.15;;;;;;;2.12;66.44;100201.72;1677504;82;20914;-74
2022/04/10 00:13:17;;;;;;;4.63;2.43;;;;;;;2.11;66.50;100203.41;1708238;83;21020;-74
2022/04/10 00:15:43;;;;;;;5.33;1.92;;;;;;;2.11;66.47;100207.66;1669566;82;20934;-74
2022/04/10 00:18:10;;;;;;;6.30;1.98;;;;;;;2.10;66.45;100210.63;1741770;82;21028;-74
2022/04/10 00:20:38;;;;;;;5.60;1.92;;;;;;;2.07;66.55;100209.77;1708238;82;21096;-74
2022/04/10 00:23:04;;;;;;;3.77;1.90;;;;;;;2.06;66.61;100214.42;1682274;83;21069;-74
2022/04/10 00:25:31;;;;;;;5.67;2.10;;;;;;;2.04;66.55;100212.28;1683049;85;21040;-74
2022/04/10 00:27:57;;;;;;;7.10;2.20;;;;;;;2.01;66.62;100208.00;1685199;85;20882;-74
2022/04/10 00:30:24;;;;;;;4.42;2.45;;;;;;;2.02;66.69;100212.67;1684943;82;20917;-74
2022/04/10 00:32:50;;;;;;;4.03;2.02;;;;;;;2.01;66.71;100209.69;1683270;83;21159;-74
2022/04/10 00:35:22;;;;;;;5.17;1.75;;;;;;;2.01;66.69;100212.23;1682842;82;21116;-74
2022/04/10 00:37:48;;;;;;;6.63;2.33;;;;;;;2.01;66.77;100217.34;1684705;82;20993;-74
2022/04/10 00:40:14;;;;;;;5.97;2.65;;;;;;;2.02;66.84;100217.77;1683889;82;21281;-74
2022/04/10 00:42:45;;;;;;;3.00;1.47;;;;;;;2.03;66.84;100215.66;1684978;83;20941;-74
2022/04/10 00:45:11;;;;;;;6.30;2.10;;;;;;;2.06;66.94;100222.08;1682988;82;21030;-74
2022/04/10 00:47:37;;;;;;;4.37;2.30;;;;;;;2.09;66.97;100219.53;1718700;82;20996;-74
2022/04/10 00:50:06;;;;;;;5.80;1.75;;;;;;;2.12;67.04;100223.39;1699363;82;21096;-74
2022/04/10 00:52:33;;;;;;;4.53;1.90;;;;;;;2.15;67.04;100222.16;1684461;83;20926;-74
2022/04/10 00:54:59;;;;;;;5.90;1.98;;;;;;;2.21;67.14;100229.88;1685107;84;21374;-74
2022/04/10 00:57:25;;;;;;;6.00;1.77;;;;;;;2.29;67.44;100225.30;1685019;85;20961;-74
2022/04/10 00:59:52;;;;;;;5.15;1.92;;;;;;;2.29;67.44;100225.30;1683005;82;20941;-74
2022/04/10 01:02:18;;;;;;;7.53;2.10;;;;;;;2.35;67.25;100225.79;1713465;83;20871;-74
2022/04/10 01:04:48;;;;;;;5.03;1.80;;;;;;;2.38;67.26;100228.38;1712324;83;21120;-74
2022/04/10 01:07:17;;;;;;;6.28;2.20;;;;;;;2.42;67.30;100238.20;1711828;83;21088;-74
2022/04/10 01:09:43;;;;;;;5.00;1.90;;;;;;;2.46;67.26;100233.14;1686740;82;21096;-74
2022/04/10 01:12:10;;;;;;;;;;;;;;;2.49;67.30;100228.49;1700567;82;20918;-74
2022/04/10 01:14:49;;;;;;;5.35;1.75;;;;;;;2.51;67.56;100230.64;1701194;84;20480;-74
2022/04/10 01:17:16;;;;;;;6.00;2.08;;;;;;;2.54;67.33;100234.08;1677556;83;20860;-74
2022/04/10 01:19:43;;;;;;;4.05;2.00;;;;;;;2.56;67.44;100241.75;1677997;84;20953;-74
2022/04/10 01:22:20;;;;;;;4.95;1.62;;;;;;;2.56;67.45;100243.88;1697120;84;20950;-74
2022/04/10 01:24:47;;;;;;;;;;;;;;;2.58;67.47;100243.48;1690785;82;21079;-74
2022/04/10 01:27:15;;;;;;;9.18;2.17;;;;;;;2.57;67.87;100244.73;1701208;84;20133;-74
2022/04/10 01:29:41;;;;;;;7.40;2.00;;;;;;;2.54;67.54;100248.12;1681980;83;21683;-74
2022/04/10 01:32:08;;;;;;;8.40;2.20;;;;;;;2.53;67.62;100250.23;1671538;84;20981;-74
2022/04/10 01:34:38;;;;;;;7.42;1.92;;;;;;;2.52;67.65;100252.34;1671328;85;21370;-74
2022/04/10 01:37:05;;;;;;;7.40;2.45;;;;;;;2.52;67.68;100250.22;1678270;82;21061;-74
2022/04/10 01:39:32;;;;;;;7.42;2.40;;;;;;;2.53;67.63;100250.23;1667189;83;21065;-74
2022/04/10 01:41:58;;;;;;;4.50;1.67;;;;;;;2.52;67.66;100244.69;1665466;86;21136;-74
2022/04/10 01:44:24;;;;;;;3.75;1.67;;;;;;;2.52;67.69;100243.84;1670232;84;20998;-74
2022/04/10 01:46:52;;;;;;;2.72;1.47;;;;;;;2.49;67.78;100250.18;1678282;83;21091;-74
2022/04/10 01:49:18;;;;;;;3.33;1.97;;;;;;;2.48;67.78;100255.70;1675142;82;20879;-74
2022/04/10 01:51:44;;;;;;;4.80;2.13;;;;;;;2.45;67.81;100256.95;1671493;84;21557;-74
2022/04/10 01:54:10;;;;;;;3.80;1.80;;;;;;;2.42;67.82;100259.88;1666046;83;21696;-75
2022/04/10 01:56:36;;;;;;;5.95;2.22;;;;;;;2.38;67.91;100260.27;1666872;82;21061;-74
2022/04/10 01:59:03;;;;;;;7.62;2.45;;;;;;;2.35;68.00;100250.03;1690119;84;21588;-74
2022/04/10 02:01:32;;;;;;;885.13;89.58;;;;;;;2.32;67.89;100258.92;1667771;83;21520;-74
2022/04/10 02:03:58;;;;;;;4.67;2.15;;;;;;;2.29;67.98;100258.89;1665444;85;20962;-74
2022/04/10 02:06:24;;;;;;;30.13;8.33;;;;;;;2.28;68.04;100263.55;1677175;82;21419;-74
2022/04/10 02:08:50;;;;;;;1348.77;680.80;;;;;;;2.28;68.10;100255.48;1671775;85;20993;-75
2022/04/10 02:11:19;;;;;;;1999.90;999.90;;;;;;;2.29;68.19;100256.33;1671876;85;21001;-75
2022/04/10 02:13:47;;;;;;;142.90;128.07;;;;;;;2.32;68.25;100259.78;1692861;82;20983;-74
2022/04/10 02:16:15;;;;;;;1526.40;754.75;;;;;;;2.33;68.25;100253.84;1702518;83;20888;-74
2022/04/10 02:18:42;;;;;;;286.00;83.05;;;;;;;2.36;68.32;100258.12;1696318;84;20939;-74
2022/04/10 02:21:09;;;;;;;438.98;82.72;;;;;;;2.39;68.32;100255.60;1687231;82;20903;-74
2022/04/10 02:23:35;;;;;;;;;;;;;;;2.42;68.35;100259.47;1686338;83;21083;-74
2022/04/10 02:26:02;;;;;;;31.57;29.50;;;;;;;2.44;68.74;100264.16;1685136;83;20127;-74
2022/04/10 02:28:28;;;;;;;83.55;78.28;;;;;;;2.46;68.41;100266.31;1698471;82;20894;-74
2022/04/10 02:30:54;;;;;;;1999.90;999.90;;;;;;;2.48;68.47;100267.61;1685236;85;20937;-74
2022/04/10 02:33:25;;;;;;;4.58;1.65;;;;;;;2.50;68.43;100261.69;1683081;85;21073;-74
2022/04/10 02:35:51;;;;;;;89.90;11.50;;;;;;;2.52;68.52;100268.94;1692363;82;21061;-74
2022/04/10 02:38:17;;;;;;;1999.90;999.90;;;;;;;2.55;68.51;100265.14;1683259;83;21643;-74
2022/04/10 02:40:44;;;;;;;10.53;8.58;;;;;;;2.57;68.68;100269.84;1682897;85;20988;-74
2022/04/10 02:43:13;;;;;;;1528.65;762.80;;;;;;;2.59;68.54;100271.99;1699888;82;21401;-74
2022/04/10 02:45:41;;;;;;;1999.90;999.90;;;;;;;2.61;68.60;100269.00;1710225;83;21047;-74
2022/04/10 02:48:07;;;;;;;1999.90;999.90;;;;;;;2.62;68.54;100273.27;1695814;84;21058;-74
2022/04/10 02:50:37;;;;;;;6.58;2.30;;;;;;;2.65;68.56;100278.41;1691145;81;21110;-74
2022/04/10 02:53:04;;;;;;;8.68;1.90;;;;;;;2.65;68.68;100269.47;1684795;83;21576;-75
2022/04/10 02:55:30;;;;;;;4.47;1.98;;;;;;;2.66;68.70;100275.02;1684204;85;25222;-75
2022/04/10 02:57:59;;;;;;;7.17;1.70;;;;;;;2.68;68.71;100271.20;1683022;83;21120;-74
2022/04/10 03:00:25;;;;;;;4.70;2.00;;;;;;;2.71;68.71;100279.31;1689182;82;24480;-75
2022/04/10 03:02:52;;;;;;;5.35;2.02;;;;;;;2.73;68.74;100277.63;1698814;83;21152;-74
2022/04/10 03:05:18;;;;;;;3.12;1.82;;;;;;;2.71;68.62;100280.17;1683394;85;21762;-74
2022/04/10 03:07:44;;;;;;;4.10;2.27;;;;;;;2.74;68.84;100276.79;1679329;82;21030;-74
2022/04/10 03:10:10;;;;;;;173.50;112.15;;;;;;;2.75;68.95;100283.19;1693236;83;21343;-74
2022/04/10 03:12:36;;;;;;;6.92;2.17;;;;;;;2.75;68.82;100275.95;1678035;84;21089;-74
2022/04/10 03:15:05;;;;;;;39.67;3.90;;;;;;;2.75;68.84;100287.44;1671447;82;21645;-74
2022/04/10 03:17:34;;;;;;;102.17;10.05;;;;;;;2.75;68.89;100275.53;1669902;83;20990;-74
2022/04/10 03:20:00;;;;;;;6.03;1.82;;;;;;;2.73;68.83;100284.02;1666149;85;21089;-74
2022/04/10 03:22:26;;;;;;;6.97;1.73;;;;;;;2.71;68.89;100264.85;1666648;82;20997;-74
2022/04/10 03:24:52;;;;;;;10.20;3.00;;;;;;;2.70;68.87;100275.91;1674433;84;21080;-74
2022/04/10 03:27:18;;;;;;;5.23;1.50;;;;;;;2.67;68.91;100277.14;1671424;85;20961;-74
2022/04/10 03:29:44;;;;;;;4.87;1.62;;;;;;;2.67;69.02;100292.46;1670979;84;21426;-74
2022/04/10 03:32:09;;;;;;;8.57;2.87;;;;;;;2.68;68.94;100293.32;1676450;82;20907;-74
2022/04/10 03:34:36;;;;;;;8.08;1.70;;;;;;;2.66;69.05;100295.86;1671197;84;21098;-74
2022/04/10 03:37:02;;;;;;;6.60;2.08;;;;;;;2.66;68.97;100303.52;1669700;84;21129;-74
2022/04/10 03:39:28;;;;;;;5.80;2.02;;;;;;;2.64;69.09;100298.39;1677948;84;21125;-74
2022/04/10 03:41:54;;;;;;;7.10;2.15;;;;;;;2.63;69.16;100303.06;1699396;84;21077;-74
2022/04/10 03:44:20;;;;;;;3.43;1.47;;;;;;;2.64;69.09;100304.77;1675469;82;21016;-74
2022/04/10 03:46:46;;;;;;;5.10;1.67;;;;;;;2.64;69.29;100307.33;1678542;84;20924;-74
2022/04/10 03:49:12;;;;;;;6.43;2.00;;;;;;;2.63;69.14;100314.55;1682790;84;20920;-74
2022/04/10 03:51:38;;;;;;;7.30;2.58;;;;;;;2.63;69.17;100316.23;1689240;82;21521;-74
2022/04/10 03:54:04;;;;;;;6.12;1.80;;;;;;;2.63;69.17;100316.23;1699456;82;21075;-75
2022/04/10 03:56:31;;;;;;;3.62;1.72;;;;;;;2.65;69.25;100320.52;1699224;84;21120;-75
2022/04/10 03:58:57;;;;;;;5.57;1.60;;;;;;;2.66;69.21;100326.06;1689204;82;20894;-75
2022/04/10 04:01:23;;;;;;;7.85;2.17;;;;;;;2.65;69.32;100335.84;1673055;83;21681;-74
2022/04/10 04:03:50;;;;;;;3.70;1.80;;;;;;;2.64;69.28;100332.84;1682993;82;21403;-74
2022/04/10 04:06:15;;;;;;;3.05;1.50;;;;;;;2.64;69.26;100341.78;1699643;83;21402;-74
2022/04/10 04:08:51;;;;;;;6.90;1.70;;;;;;;2.64;69.37;100345.61;1699442;84;21097;-74
2022/04/10 04:11:17;;;;;;;6.42;1.72;;;;;;;2.64;69.37;100349.44;1657455;82;21113;-74
2022/04/10 04:13:43;;;;;;;2.60;1.50;;;;;;;2.62;69.44;100350.27;1672547;84;20946;-74
2022/04/10 04:16:09;;;;;;;4.75;1.80;;;;;;;2.63;69.39;100359.63;1683194;84;20887;-74
2022/04/10 04:18:35;;;;;;;3.80;1.60;;;;;;;2.61;69.49;100357.48;1692310;84;21067;-74
2022/04/10 04:21:02;;;;;;;4.20;1.60;;;;;;;2.63;69.45;100359.63;1695202;82;20997;-74
2022/04/10 04:23:29;;;;;;;5.58;1.70;;;;;;;2.62;69.46;100365.16;1694123;83;20919;-74
2022/04/10 04:25:55;;;;;;;5.53;1.77;;;;;;;2.62;69.51;100365.16;1669769;82;21068;-74
2022/04/10 04:28:21;;;;;;;6.50;1.70;;;;;;;2.62;69.54;100366.43;1696288;84;21077;-74
2022/04/10 04:30:47;;;;;;;7.77;2.47;;;;;;;2.63;69.54;100366.02;1680398;82;20867;-74
2022/04/10 04:33:13;;;;;;;6.37;2.20;;;;;;;2.64;69.56;100368.58;1701643;83;20978;-74
2022/04/10 04:35:39;;;;;;;7.50;2.77;;;;;;;2.64;69.64;100373.69;1687996;83;20871;-74
2022/04/10 04:38:05;;;;;;;6.72;2.35;;;;;;;2.66;69.61;100377.12;1674115;83;21084;-74
2022/04/10 04:40:31;;;;;;;8.10;2.60;;;;;;;2.64;69.70;100380.48;1682552;82;20926;-74
2022/04/10 04:42:57;;;;;;;4.60;1.57;;;;;;;2.63;69.72;100382.19;1679038;84;20976;-74
2022/04/10 04:45:23;;;;;;;3.85;1.87;;;;;;;2.64;69.73;100388.15;1671971;82;21094;-74
2022/04/10 04:47:49;;;;;;;8.80;2.30;;;;;;;2.65;69.80;100389.44;1714805;82;21112;-74
2022/04/10 04:50:15;;;;;;;5.87;2.40;;;;;;;2.68;69.75;100393.73;1665867;85;21007;-74
2022/04/10 04:52:41;;;;;;;10.18;2.67;;;;;;;2.71;69.79;100403.13;1671816;83;21026;-74
2022/04/10 04:55:09;;;;;;;5.67;2.40;;;;;;;2.72;69.77;100401.00;1648228;85;20871;-74
2022/04/10 04:57:35;;;;;;;3.72;1.72;;;;;;;2.73;69.81;100409.11;1670497;82;21064;-74
2022/04/10 05:00:01;;;;;;;8.70;2.65;;;;;;;2.75;69.83;100414.67;1673322;84;21060;-74
2022/04/10 05:02:28;;;;;;;11.50;2.37;;;;;;;2.79;69.88;100414.28;1667660;85;20981;-74
2022/04/10 05:04:54;;;;;;;6.17;2.20;;;;;;;2.80;69.88;100419.41;1670593;82;21037;-75
2022/04/10 05:07:21;;;;;;;;;;;;;;;2.83;69.99;100421.15;1695773;84;20989;-74
2022/04/10 05:09:47;;;;;;;13.08;3.00;;;;;;;2.85;70.22;100428.41;1693646;83;29501;-74
2022/04/10 05:12:15;;;;;;;7.22;2.62;;;;;;;2.86;70.04;100418.21;1673693;82;21525;-74
2022/04/10 05:14:41;;;;;;;8.73;2.50;;;;;;;2.87;70.00;100422.89;1675685;84;21409;-74
2022/04/10 05:17:07;;;;;;;6.75;2.72;;;;;;;2.90;69.99;100430.17;1707656;82;21017;-74
2022/04/10 05:19:33;;;;;;;6.85;2.65;;;;;;;2.93;70.03;100435.74;1675063;83;21041;-75
2022/04/10 05:21:59;;;;;;;4.40;2.15;;;;;;;2.96;70.10;100437.91;1689524;82;21076;-75
2022/04/10 05:24:25;;;;;;;5.30;2.00;;;;;;;3.02;70.05;100437.13;1670065;84;21569;-75
2022/04/10 05:26:51;;;;;;;7.97;2.60;;;;;;;3.07;70.13;100446.13;1681605;83;21216;-75
2022/04/10 05:29:18;;;;;;;3.90;1.95;;;;;;;3.10;70.11;100444.88;1680654;83;20954;-75
2022/04/10 05:31:46;;;;;;;4.00;2.17;;;;;;;3.16;70.11;100450.03;1688770;82;21526;-75
2022/04/10 05:34:13;;;;;;;5.30;2.05;;;;;;;3.18;70.32;100448.34;1677035;84;21036;-75
2022/04/10 05:36:39;;;;;;;6.08;2.50;;;;;;;3.20;70.14;100450.08;1677319;82;21495;-75
2022/04/10 05:39:09;;;;;;;6.03;2.65;;;;;;;3.22;70.13;100452.23;1699888;82;21092;-75
2022/04/10 05:41:35;;;;;;;11.03;3.37;;;;;;;3.27;70.25;100449.73;1672846;83;21021;-75
2022/04/10 05:44:01;;;;;;;10.40;2.65;;;;;;;3.29;70.18;100454.02;1695449;82;20898;-74
2022/04/10 05:46:27;;;;;;;8.80;2.90;;;;;;;3.31;70.20;100463.84;1679090;82;21027;-75
2022/04/10 05:48:54;;;;;;;7.28;1.70;;;;;;;3.36;70.21;100470.27;1689996;83;21116;-75
2022/04/10 05:51:20;;;;;;;6.33;2.17;;;;;;;3.41;70.21;100474.16;1665106;86;21097;-75
2022/04/10 05:53:46;;;;;;;6.90;2.20;;;;;;;3.43;70.30;100474.61;1672188;82;21096;-75
2022/04/10 05:56:12;;;;;;;9.63;2.50;;;;;;;3.46;70.26;100487.42;1679915;83;21020;-75
2022/04/10 05:58:38;;;;;;;5.72;1.92;;;;;;;3.48;70.25;100481.05;1664870;83;21491;-76
2022/04/10 06:01:04;;;;;;;4.80;2.17;;;;;;;3.39;70.24;100454.98;1677473;82;21422;-75
2022/04/10 06:03:30;;;;;;;6.12;2.10;;;;;;;3.53;70.35;100478.13;1673361;84;20883;-75
2022/04/10 06:05:56;;;;;;;6.63;2.30;;;;;;;3.55;70.29;100476.02;1670460;82;21686;-75
2022/04/10 06:08:22;;;;;;;9.33;2.60;;;;;;;3.58;70.30;100474.77;1696789;82;21395;-75
2022/04/10 06:10:49;;;;;;;7.28;2.02;;;;;;;3.62;70.32;100469.27;1674422;83;130106;-75
2022/04/10 06:13:15;;;;;;;7.75;2.40;;;;;;;3.68;70.40;100473.13;1680085;83;21002;-75
2022/04/10 06:15:41;;;;;;;4.50;2.10;;;;;;;3.75;70.40;100482.58;1702849;82;21492;-74
2022/04/10 06:18:07;;;;;;;6.97;2.80;;;;;;;3.83;70.48;100483.51;1702692;83;21667;-74
2022/04/10 06:20:34;;;;;;;8.68;2.60;;;;;;;3.91;70.45;100486.99;1689048;82;21127;-74
2022/04/10 06:23:00;;;;;;;6.17;2.17;;;;;;;3.99;70.45;100480.67;1693945;82;21548;-74
2022/04/10 06:25:27;;;;;;;5.65;2.92;;;;;;;4.09;70.46;100490.56;1705054;82;21009;-74
2022/04/10 06:27:54;;;;;;;6.33;2.55;;;;;;;4.18;70.65;100497.00;1705366;82;21811;-75
2022/04/10 06:30:21;;;;;;;11.48;3.12;;;;;;;4.23;70.50;100493.63;1700968;82;21524;-75
2022/04/10 06:32:48;;;;;;;10.13;3.40;;;;;;;4.33;70.54;100494.56;1701924;82;21525;-75
2022/04/10 06:35:16;;;;;;;5.50;3.00;;;;;;;4.42;70.50;100499.75;1701164;82;21378;-74
2022/04/10 06:37:43;;;;;;;8.47;3.63;;;;;;;4.50;70.50;100492.98;1704147;82;21563;-74
2022/04/10 06:40:09;;;;;;;6.03;2.75;;;;;;;4.56;70.43;100507.53;1702359;82;20978;-74
2022/04/10 06:42:35;;;;;;;9.80;3.12;;;;;;;4.60;70.42;100506.28;1707498;83;21430;-74
2022/04/10 06:45:02;;;;;;;10.57;3.13;;;;;;;4.65;70.56;100499.91;1706982;82;20945;-77
2022/04/10 06:47:31;;;;;;;6.75;2.70;;;;;;;4.59;70.46;100500.72;1706452;82;21375;-77
2022/04/10 06:49:57;;;;;;;7.40;2.65;;;;;;;4.75;70.51;100514.87;1704713;83;21563;-77
2022/04/10 06:52:24;;;;;;;13.22;3.60;;;;;;;4.82;70.51;100510.22;1706638;82;21076;-77
2022/04/10 06:54:53;;;;;;;6.83;2.20;;;;;;;4.88;70.51;100517.52;1701552;82;20922;-77
2022/04/10 06:57:19;;;;;;;8.03;2.35;;;;;;;4.92;70.40;100519.67;1684255;83;21415;-77
2022/04/10 06:59:45;;;;;;;6.17;2.90;;;;;;;4.91;70.42;100510.27;1705641;82;21544;-77
2022/04/10 07:02:11;;;;;;;7.30;2.45;;;;;;;4.91;70.40;100522.66;1703514;82;21548;-77
2022/04/10 07:04:38;;;;;;;5.72;2.50;;;;;;;4.92;70.41;100523.09;1704344;83;21513;-77
2022/04/10 07:07:04;;;;;;;7.87;2.58;;;;;;;4.95;70.45;100528.66;1702901;82;20997;-78
2022/04/10 07:09:30;;;;;;;13.28;4.72;;;;;;;4.97;70.42;100531.66;1687196;82;21534;-78
2022/04/10 07:11:56;;;;;;;11.33;5.40;;;;;;;4.98;70.45;100532.52;1697860;82;21596;-78
2022/04/10 07:14:28;;;;;;;11.75;3.92;;;;;;;5.03;70.47;100542.37;1693086;82;21510;-78
2022/04/10 07:16:54;;;;;;;6.63;2.70;;;;;;;5.03;70.36;100540.23;1692837;83;21095;-77
2022/04/10 07:19:20;;;;;;;6.53;3.17;;;;;;;4.98;70.33;100543.62;1693265;82;21446;-77
2022/04/10 07:24:32;;;;;;;7.22;2.70;;;;;;;4.98;70.42;100553.02;1686210;82;21475;-78
2022/04/10 07:26:59;;;;;;;7.50;2.77;;;;;;;4.99;70.36;100553.45;1686078;83;21037;-78
2022/04/10 07:29:25;;;;;;;10.32;3.30;;;;;;;4.94;70.32;100546.16;1694484;83;21472;-78
2022/04/10 07:31:51;;;;;;;6.83;3.47;;;;;;;4.92;70.32;100560.23;1680889;82;21526;-78
2022/04/10 07:34:17;;;;;;;7.58;3.30;;;;;;;4.91;70.33;100566.64;1692787;83;21573;-77
2022/04/10 07:36:43;;;;;;;8.65;2.98;;;;;;;4.92;70.39;100567.06;1698801;82;21560;-78
2022/04/10 07:39:10;;;;;;;8.80;3.20;;;;;;;4.95;70.36;100574.78;1690221;83;20934;-78
2022/04/10 07:41:36;;;;;;;8.38;3.05;;;;;;;4.95;70.34;100557.70;1680369;84;21070;-78
2022/04/10 07:44:02;;;;;;;9.70;2.93;;;;;;;4.93;70.29;100565.80;1677039;83;20983;-76
2022/04/10 07:49:16;;;;;;;13.08;3.62;;;;;;;4.97;70.42;100556.42;1630681;86;32801;-76
2022/04/10 07:51:43;;;;;;;10.23;3.55;;;;;;;5.05;70.39;100566.30;1652112;86;21603;-77
2022/04/10 07:54:09;;;;;;;10.78;4.20;;;;;;;5.12;70.42;100566.77;1661336;85;21134;-77
2022/04/10 07:56:35;;;;;;;7.87;3.72;;;;;;;5.24;70.48;100571.92;1659411;84;21740;-78
2022/04/10 07:59:01;;;;;;;9.03;4.77;;;;;;;5.35;70.44;100577.53;1666625;85;20885;-77
2022/04/10 08:01:27;;;;;;;10.80;4.10;;;;;;;5.50;70.49;100576.31;1658778;86;21015;-77
2022/04/10 08:03:54;;;;;;;11.28;3.80;;;;;;;5.58;70.42;100580.63;1663271;85;21132;-77
2022/04/10 08:06:24;;;;;;;10.48;4.15;;;;;;;5.68;70.39;100581.52;1652932;84;21052;-77
2022/04/10 08:08:50;;;;;;;9.03;3.58;;;;;;;5.78;70.40;100597.77;1655272;86;21655;-77
2022/04/10 08:11:16;;;;;;;9.05;3.10;;;;;;;5.78;70.40;100597.77;1659932;86;21204;-77
2022/04/10 08:13:43;;;;;;;8.05;3.65;;;;;;;5.85;70.35;100595.22;1657809;84;21614;-77
2022/04/10 08:16:10;;;;;;;8.10;2.72;;;;;;;5.94;70.33;100596.56;1666386;85;21070;-77
2022/04/10 08:18:36;;;;;;;8.35;2.87;;;;;;;6.00;70.36;100602.14;1666012;84;21148;-77
2022/04/10 08:21:02;;;;;;;7.45;2.85;;;;;;;6.11;70.31;100609.44;1697000;82;21061;-77
2022/04/10 08:23:28;;;;;;;15.58;3.08;;;;;;;6.14;70.25;100615.87;1692346;83;21026;-77
2022/04/10 08:25:55;;;;;;;9.25;3.20;;;;;;;6.19;70.26;100615.45;1705126;82;21692;-77
2022/04/10 08:28:22;;;;;;;11.75;3.30;;;;;;;6.21;70.10;100611.17;1708947;82;21457;-77
2022/04/10 08:30:56;;;;;;;14.00;3.33;;;;;;;6.19;70.19;100612.88;1698450;83;21042;-77
2022/04/10 08:33:22;;;;;;;8.40;3.37;;;;;;;6.24;70.20;100614.14;1706068;82;21026;-77
2022/04/10 08:35:48;;;;;;;6.63;3.27;;;;;;;6.28;70.23;100619.28;1700961;82;21057;-77
2022/04/10 08:38:14;;;;;;;7.13;3.23;;;;;;;6.34;70.13;100624.00;1700610;83;20949;-77
2022/04/10 08:40:41;;;;;;;7.17;2.90;;;;;;;6.37;70.17;100625.30;1703474;82;21040;-76
2022/04/10 08:43:09;;;;;;;6.53;2.83;;;;;;;6.45;70.18;100623.59;1685659;82;21077;-76
2022/04/10 08:45:37;;;;;;;10.65;3.55;;;;;;;6.48;70.13;100627.45;1684490;82;20973;-76
2022/04/10 08:48:05;;;;;;;6.97;3.27;;;;;;;6.53;70.17;100634.30;1703541;82;21104;-77
2022/04/10 08:50:32;;;;;;;8.50;3.80;;;;;;;6.61;70.10;100627.88;1690645;82;21120;-76
2022/04/10 08:52:59;;;;;;;9.08;3.02;;;;;;;6.69;70.13;100631.31;1693392;82;21089;-78
2022/04/10 08:55:25;;;;;;;9.53;2.95;;;;;;;6.77;70.01;100635.99;1691701;83;20906;-77
2022/04/10 08:57:52;;;;;;;8.70;2.80;;;;;;;6.82;70.12;100635.99;1691018;82;21037;-76
2022/04/10 09:00:27;;;;;;;4.87;2.57;;;;;;;6.90;69.98;100635.56;1697046;82;21068;-76
2022/04/10 09:02:52;;;;;;;7.10;2.30;;;;;;;6.96;69.95;100640.70;1690521;82;21275;-75
2022/04/10 09:05:22;;;;;;;9.68;2.55;;;;;;;7.01;69.87;100629.98;1690942;82;21053;-76
2022/04/10 09:08:16;;;;;;;8.85;2.83;;;;;;;6.99;69.74;100640.70;1690401;82;21139;-75
2022/04/10 09:11:08;;;;;;;9.25;2.77;;;;;;;6.95;69.74;100631.27;1679244;82;21076;-75
2022/04/10 09:13:49;;;;;;;4.33;2.30;;;;;;;7.07;69.80;100638.12;1690908;83;20874;-75
2022/04/10 09:16:22;;;;;;;8.08;2.50;;;;;;;7.18;69.82;100641.10;1702282;82;21572;-76
2022/04/10 09:18:54;;;;;;;7.33;2.27;;;;;;;7.31;69.65;100643.19;1701693;82;21064;-77
2022/04/10 09:21:33;;;;;;;8.33;2.87;;;;;;;7.36;69.64;100641.46;1701818;82;21056;-74
2022/04/10 09:24:09;;;;;;;8.08;2.87;;;;;;;7.46;69.74;100639.30;1643898;82;5001036;-74
2022/04/10 09:26:54;;;;;;;6.78;2.83;;;;;;;7.53;69.66;100641.42;1713690;82;21055;-79
2022/04/10 09:29:23;;;;;;;11.18;2.95;;;;;;;7.50;69.39;100647.43;1722049;82;20854;-79
2022/04/10 09:32:13;;;;;;;5.30;3.10;;;;;;;7.45;69.44;100636.73;1710412;82;20881;-76
2022/04/10 09:34:39;;;;;;;6.80;2.92;;;;;;;7.38;69.39;100646.17;1716063;82;20874;-76
2022/04/10 09:37:06;;;;;;;11.65;3.80;;;;;;;7.38;69.38;100645.31;1718660;82;20866;-76
2022/04/10 09:39:34;;;;;;;10.05;3.08;;;;;;;7.34;69.32;100644.47;1714579;82;20941;-76
2022/04/10 09:42:10;;;;;;;7.12;3.15;;;;;;;7.28;69.32;100646.63;1714651;82;21013;-76
2022/04/10 09:44:39;;;;;;;7.78;2.50;;;;;;;7.29;69.33;100644.91;1718423;82;20956;-76
2022/04/10 09:47:08;;;;;;;7.92;3.42;;;;;;;7.28;69.30;100644.05;1720949;82;20941;-76
2022/04/10 09:49:40;;;;;;;11.97;3.27;;;;;;;7.29;69.21;100647.48;1718443;82;21887;-76
2022/04/10 09:52:15;;;;;;;8.98;2.42;;;;;;;7.28;69.20;100642.77;1697346;82;20893;-76
2022/04/10 09:54:46;;;;;;;8.63;2.35;;;;;;;7.31;69.21;100645.33;1723226;82;20960;-77
2022/04/10 09:57:19;;;;;;;5.15;2.00;;;;;;;7.35;69.12;100646.61;1720632;82;20968;-76
2022/04/10 09:59:50;;;;;;;7.37;2.87;;;;;;;7.28;68.99;100645.34;1724286;82;20917;-76
2022/04/10 10:02:19;;;;;;;7.00;1.90;;;;;;;7.24;68.99;100648.81;1706116;82;20913;-76
2022/04/10 10:04:48;;;;;;;9.40;2.70;;;;;;;7.19;68.92;100645.81;1727152;82;21124;-79
2022/04/10 10:07:18;;;;;;;10.58;3.33;;;;;;;7.20;69.00;100648.81;1737074;82;20902;-80
2022/04/10 10:09:48;;;;;;;10.93;3.92;;;;;;;7.18;68.80;100644.10;1708240;81;323815;-80
2022/04/10 10:12:16;;;;;;;9.73;3.37;;;;;;;7.17;68.77;100647.53;1722089;81;20991;-80
2022/04/10 10:14:43;;;;;;;5.90;2.47;;;;;;;7.10;68.63;100649.25;1709557;81;20873;-80
2022/04/10 10:17:10;;;;;;;6.95;2.70;;;;;;;7.00;68.56;100652.69;1724815;82;20932;-80
2022/04/10 10:19:41;;;;;;;7.75;2.12;;;;;;;6.91;68.53;100650.13;1721856;82;20956;-80
2022/04/10 10:22:12;;;;;;;6.92;2.58;;;;;;;6.85;68.40;100647.56;1714874;82;20893;-80
2022/04/10 10:24:55;;;;;;;5.70;2.30;;;;;;;6.80;68.20;100653.13;1713180;81;20933;-80
2022/04/10 10:27:49;;;;;;;11.73;2.30;;;;;;;6.68;68.29;100649.30;1723080;82;20940;-80
2022/04/10 10:31:01;;;;;;;7.80;2.10;;;;;;;6.61;68.26;100651.00;1722808;82;20902;-80
2022/04/10 10:33:30;;;;;;;6.20;2.47;;;;;;;6.58;68.30;100646.72;1718633;82;21073;-80
2022/04/10 10:35:59;;;;;;;6.70;2.35;;;;;;;6.63;68.23;100649.30;1715630;82;21825;-76
2022/04/10 10:38:30;;;;;;;4.83;1.77;;;;;;;6.68;68.29;100648.88;1698234;82;20984;-77
2022/04/10 10:41:19;;;;;;;5.95;1.95;;;;;;;6.79;68.28;100656.55;1712849;82;21071;-76
2022/04/10 10:43:47;;;;;;;8.25;2.00;;;;;;;6.90;68.22;100651.84;1713729;82;21111;-76
2022/04/10 10:46:35;;;;;;;7.20;2.00;;;;;;;7.05;68.20;100641.13;1719557;82;20952;-76
2022/04/10 10:49:19;;;;;;;7.60;2.35;;;;;;;7.16;68.10;100646.67;1710713;82;21103;-79
2022/04/10 10:51:48;;;;;;;5.45;1.95;;;;;;;7.39;68.28;100648.31;1700471;82;21476;-77
2022/04/10 10:54:21;;;;;;;7.80;2.83;;;;;;;7.61;68.13;100645.68;1695169;82;21616;-77
2022/04/10 10:56:50;;;;;;;5.67;1.92;;;;;;;7.68;67.84;100645.23;1721452;82;20976;-78
2022/04/10 10:59:35;;;;;;;6.45;2.00;;;;;;;7.60;67.69;100647.83;1711748;82;21501;-76
2022/04/10 11:02:14;;;;;;;6.97;2.25;;;;;;;7.50;67.60;100648.72;1709650;82;21675;-76
2022/04/10 11:04:44;;;;;;;6.47;2.12;;;;;;;7.44;67.67;100642.30;1714848;82;21496;-76
2022/04/10 11:07:22;;;;;;;6.65;1.62;;;;;;;7.50;67.80;100642.72;1710992;82;21138;-76
2022/04/10 11:10:11;;;;;;;8.15;2.17;;;;;;;7.58;67.78;100646.98;1712107;82;21076;-76
2022/04/10 11:13:09;;;;;;;5.47;2.27;;;;;;;7.70;67.67;100649.09;1706231;82;21059;-76
2022/04/10 11:15:54;;;;;;;6.90;2.17;;;;;;;7.75;67.51;100649.49;1717575;82;21014;-76
2022/04/10 11:18:32;;;;;;;8.00;2.22;;;;;;;7.83;67.50;100642.99;1714759;82;21568;-75
2022/04/10 11:21:14;;;;;;;7.80;1.90;;;;;;;7.94;67.47;100648.95;1705992;82;21572;-75
2022/04/10 11:23:45;;;;;;;10.43;2.60;;;;;;;8.01;67.48;100657.08;1710031;82;21409;-75
2022/04/10 11:26:18;;;;;;;7.92;2.20;;;;;;;8.10;67.26;100653.17;1710569;82;21090;-76
2022/04/10 11:29:04;;;;;;;4.20;2.12;;;;;;;8.14;67.25;100647.57;1721308;82;20909;-76
2022/04/10 11:31:41;;;;;;;6.17;1.70;;;;;;;8.17;67.21;100647.55;1700572;82;20917;-76
2022/04/10 11:34:22;;;;;;;6.45;1.70;;;;;;;8.19;67.13;100647.11;1714417;82;20978;-76
2022/04/10 11:36:53;;;;;;;5.83;2.80;;;;;;;8.19;66.95;100645.39;1703687;82;20916;-76
2022/04/10 11:39:32;;;;;;;4.70;2.08;;;;;;;8.07;66.61;100666.48;1717355;82;20921;-76
2022/04/10 11:42:07;;;;;;;6.58;1.67;;;;;;;7.80;66.40;100674.75;1714749;82;20909;-76
2022/04/10 11:44:33;;;;;;;3.52;1.20;;;;;;;7.43;66.39;100678.32;1714504;82;20955;-76